Time;durP1;ratioP1;P1;durP2;ratioP2;P2;SDS_P1;SDS_P2;PMS_P1;PMS_P2;Temp;Humidity;BMP_temperature;BMP_pressure;BME280_temperature;BME280_humidity;BME280_pressure;Samples;Min_cycle;Max_cycle;Signal;HPM_P1;HPM_P2
2022/02/25 00:01:50;;;;;;;;;;;1.20;99.90;;;;;;5072795;28;20329;-60
2022/02/25 00:04:17;;;;;;;;;;;1.20;99.90;;;;;;5072304;28;19920;-58
2022/02/25 00:06:43;;;;;;;;;;;1.20;99.90;;;;;;5072494;28;19920;-59
2022/02/25 00:09:11;;;;;;;;;;;1.20;99.90;;;;;;5072978;28;20286;-60
2022/02/25 00:11:38;;;;;;;;;;;1.20;99.90;;;;;;5072529;28;19924;-60
2022/02/25 00:14:04;;;;;;;;;;;1.20;99.90;;;;;;5072679;28;19985;-60
2022/02/25 00:16:31;;;;;;;;;;;1.20;99.90;;;;;;5072372;28;19974;-59
2022/02/25 00:18:58;;;;;;;;;;;1.20;99.90;;;;;;5072876;28;20317;-59
2022/02/25 00:21:25;;;;;;;;;;;1.20;99.90;;;;;;5072526;28;19943;-59
2022/02/25 00:23:51;;;;;;;;;;;1.30;99.90;;;;;;5072558;28;19920;-60
2022/02/25 00:26:19;;;;;;;;;;;1.30;99.90;;;;;;5072221;28;20400;-58
2022/02/25 00:28:45;;;;;;;;;;;1.30;99.90;;;;;;5072083;28;19928;-58
2022/02/25 00:31:12;;;;;;;;;;;1.30;99.90;;;;;;5071254;28;20301;-57
2022/02/25 00:33:38;;;;;;;;;;;1.30;99.90;;;;;;5072050;28;19974;-60
2022/02/25 00:36:05;;;;;;;;;;;1.30;99.90;;;;;;5072126;28;19920;-59
2022/02/25 00:38:32;;;;;;;;;;;1.30;99.90;;;;;;5072309;28;19967;-60
2022/02/25 00:40:58;;;;;;;;;;;1.30;99.90;;;;;;5072610;28;19928;-60
2022/02/25 00:43:26;;;;;;;;;;;1.30;99.90;;;;;;5071988;28;19924;-58
2022/02/25 00:45:52;;;;;;;;;;;1.30;99.90;;;;;;5071925;28;19924;-58
2022/02/25 00:48:19;;;;;;;;;;;1.30;99.90;;;;;;5072432;28;19925;-59
2022/02/25 00:50:46;;;;;;;;;;;1.30;99.90;;;;;;5072292;28;19920;-58
2022/02/25 00:53:12;;;;;;;;;;;1.30;99.90;;;;;;5071846;28;20379;-59
2022/02/25 00:55:39;;;;;;;;;;;1.30;99.90;;;;;;5071453;28;19920;-58
2022/02/25 00:58:05;;;;;;;;;;;1.30;99.90;;;;;;5071783;28;19946;-59
2022/02/25 01:00:33;;;;;;;;;;;1.30;99.90;;;;;;5071518;28;19920;-59
2022/02/25 01:03:00;;;;;;;;;;;1.30;99.90;;;;;;5071752;28;19924;-58
2022/02/25 01:05:26;;;;;;;;;;;1.30;99.90;;;;;;5071590;28;19974;-57
2022/02/25 01:07:53;;;;;;;;;;;1.30;99.90;;;;;;5071712;28;20378;-59
2022/02/25 01:10:20;;;;;;;;;;;1.40;99.90;;;;;;5071801;28;20361;-58
2022/02/25 01:12:47;;;;;;;;;;;1.40;99.90;;;;;;5071363;28;19923;-59
2022/02/25 01:15:14;;;;;;;;;;;1.40;99.90;;;;;;5071369;28;19924;-59
2022/02/25 01:17:44;;;;;;;;;;;1.50;99.90;;;;;;5071383;28;19966;-58
2022/02/25 01:20:11;;;;;;;;;;;1.50;99.90;;;;;;5071661;28;20287;-57
2022/02/25 01:22:38;;;;;;;;;;;1.50;99.90;;;;;;5071345;28;19986;-57
2022/02/25 01:25:05;;;;;;;;;;;1.50;99.90;;;;;;5071402;28;19921;-59
2022/02/25 01:27:32;;;;;;;;;;;1.50;99.90;;;;;;5071125;28;19924;-60
2022/02/25 01:29:58;;;;;;;;;;;1.50;99.90;;;;;;5072000;28;19974;-59
2022/02/25 01:32:25;;;;;;;;;;;1.50;99.90;;;;;;5071798;28;19920;-59
2022/02/25 01:34:54;;;;;;;;;;;1.50;99.90;;;;;;5071505;28;20436;-60
2022/02/25 01:37:20;;;;;;;;;;;1.40;99.90;;;;;;5071704;28;19920;-59
2022/02/25 01:39:47;;;;;;;;;;;1.40;99.90;;;;;;5071744;28;19920;-59
2022/02/25 01:42:13;;;;;;;;;;;1.50;99.90;;;;;;5072659;28;19924;-60
2022/02/25 01:44:41;;;;;;;;;;;1.50;99.90;;;;;;5075338;28;20272;-60
2022/02/25 01:47:08;;;;;;;;;;;1.50;99.90;;;;;;5075017;28;19966;-62
2022/02/25 01:49:35;;;;;;;;;;;1.50;99.90;;;;;;5075196;28;19989;-59
2022/02/25 01:52:04;;;;;;;;;;;1.50;99.90;;;;;;5075004;28;19920;-59
2022/02/25 01:54:31;;;;;;;;;;;1.50;99.90;;;;;;5074566;28;20429;-60
2022/02/25 01:56:58;;;;;;;;;;;1.50;99.90;;;;;;5074976;28;19920;-59
2022/02/25 01:59:25;;;;;;;;;;;1.50;99.90;;;;;;5075087;28;19920;-59
2022/02/25 02:01:51;;;;;;;;;;;1.40;99.90;;;;;;5074734;28;19924;-60
2022/02/25 02:04:19;;;;;;;;;;;1.40;99.90;;;;;;5074674;28;20440;-60
2022/02/25 02:06:45;;;;;;;;;;;1.40;99.90;;;;;;5074409;28;20370;-58
2022/02/25 02:09:13;;;;;;;;;;;1.50;99.90;;;;;;5074672;28;20294;-59
2022/02/25 02:11:40;;;;;;;;;;;1.40;99.90;;;;;;5074488;28;19920;-60
2022/02/25 02:14:08;;;;;;;;;;;1.50;99.90;;;;;;5074533;28;19974;-60
2022/02/25 02:16:34;;;;;;;;;;;1.40;99.90;;;;;;5074405;28;19931;-59
2022/02/25 02:19:01;;;;;;;;;;;1.40;99.90;;;;;;5074470;28;20524;-57
2022/02/25 02:21:29;;;;;;;;;;;1.40;99.90;;;;;;5074660;28;19991;-60
2022/02/25 02:23:59;;;;;;;;;;;1.40;99.90;;;;;;5074653;28;20390;-60
2022/02/25 02:26:28;;;;;;;;;;;1.30;99.90;;;;;;5074832;28;19924;-60
2022/02/25 02:28:54;;;;;;;;;;;1.30;99.90;;;;;;5075176;28;19965;-59
2022/02/25 02:31:21;;;;;;;;;;;1.30;99.90;;;;;;5074974;28;19974;-56
2022/02/25 02:33:47;;;;;;;;;;;1.30;99.90;;;;;;5074119;28;20057;-58
2022/02/25 02:36:14;;;;;;;;;;;1.30;99.90;;;;;;5074360;28;19978;-59
2022/02/25 02:38:41;;;;;;;;;;;1.40;99.90;;;;;;5074451;28;19920;-60
2022/02/25 02:41:09;;;;;;;;;;;1.30;99.90;;;;;;5074652;28;19920;-60
2022/02/25 02:43:36;;;;;;;;;;;1.30;99.90;;;;;;5074466;28;19920;-59
2022/02/25 02:46:03;;;;;;;;;;;1.30;99.90;;;;;;5073836;28;19927;-59
2022/02/25 02:48:30;;;;;;;;;;;1.30;99.90;;;;;;5074524;28;19920;-59
2022/02/25 02:50:56;;;;;;;;;;;1.30;99.90;;;;;;5074428;28;20383;-58
2022/02/25 02:53:23;;;;;;;;;;;1.30;99.90;;;;;;5074041;28;19974;-59
2022/02/25 02:55:49;;;;;;;;;;;1.30;99.90;;;;;;5074149;28;19966;-59
2022/02/25 02:58:17;;;;;;;;;;;1.30;99.90;;;;;;5074763;28;19920;-59
2022/02/25 03:00:46;;;;;;;;;;;1.40;99.90;;;;;;5074561;28;19932;-59
2022/02/25 03:03:12;;;;;;;;;;;1.40;99.90;;;;;;5074493;28;19925;-59
2022/02/25 03:05:39;;;;;;;;;;;1.40;99.90;;;;;;5074836;28;19928;-58
2022/02/25 03:08:06;;;;;;;;;;;1.40;99.90;;;;;;5074349;28;19920;-58
2022/02/25 03:10:32;;;;;;;;;;;1.40;99.90;;;;;;5074518;28;19920;-59
2022/02/25 03:12:59;;;;;;;;;;;1.40;99.90;;;;;;5074191;28;20432;-59
2022/02/25 03:15:27;;;;;;;;;;;1.40;99.90;;;;;;5074351;28;19920;-58
2022/02/25 03:17:54;;;;;;;;;;;1.40;99.90;;;;;;5073694;28;19966;-58
2022/02/25 03:20:22;;;;;;;;;;;1.40;99.90;;;;;;5074244;28;19975;-57
2022/02/25 03:22:48;;;;;;;;;;;1.40;99.90;;;;;;5073827;28;20301;-56
2022/02/25 03:25:15;;;;;;;;;;;1.40;99.90;;;;;;5073648;28;20379;-57
2022/02/25 03:27:42;;;;;;;;;;;1.40;99.90;;;;;;5073683;28;19921;-59
2022/02/25 03:30:09;;;;;;;;;;;1.40;99.90;;;;;;5073829;28;19987;-58
2022/02/25 03:32:37;;;;;;;;;;;1.40;99.90;;;;;;5073591;28;19982;-59
2022/02/25 03:35:03;;;;;;;;;;;1.40;99.90;;;;;;5073298;28;20387;-56
2022/02/25 03:37:30;;;;;;;;;;;1.40;99.90;;;;;;5073572;28;19924;-56
2022/02/25 03:39:56;;;;;;;;;;;1.40;99.90;;;;;;5073485;28;19920;-59
2022/02/25 03:42:23;;;;;;;;;;;1.30;98.30;;;;;;5073611;28;19974;-58
2022/02/25 03:44:50;;;;;;;;;;;1.30;96.30;;;;;;5073138;28;19974;-55
2022/02/25 03:47:16;;;;;;;;;;;1.40;94.80;;;;;;5073531;28;19925;-59
2022/02/25 03:49:44;;;;;;;;;;;1.30;94.60;;;;;;5073537;28;20345;-59
2022/02/25 03:52:10;;;;;;;;;;;1.40;93.50;;;;;;5073515;28;19974;-56
2022/02/25 03:54:37;;;;;;;;;;;1.40;75.30;;;;;;5073173;28;19920;-57
2022/02/25 03:57:04;;;;;;;;;;;1.40;81.90;;;;;;5073013;28;19920;-58
2022/02/25 03:59:30;;;;;;;;;;;1.40;74.70;;;;;;5073149;28;19920;-58
2022/02/25 04:01:57;;;;;;;;;;;1.40;74.60;;;;;;5073293;28;20659;-58
2022/02/25 04:04:24;;;;;;;;;;;1.40;80.40;;;;;;5073294;28;19924;-59
2022/02/25 04:06:52;;;;;;;;;;;1.40;74.70;;;;;;5072949;28;19925;-59
2022/02/25 04:09:19;;;;;;;;;;;1.40;76.30;;;;;;5073230;28;19924;-59
2022/02/25 04:11:46;;;;;;;;;;;1.40;77.50;;;;;;5073037;28;19924;-58
2022/02/25 04:14:13;;;;;;;;;;;1.40;82.00;;;;;;5072802;28;19920;-58
2022/02/25 04:16:40;;;;;;;;;;;1.40;75.00;;;;;;5073104;28;19920;-66
2022/02/25 04:19:06;;;;;;;;;;;1.40;75.60;;;;;;5073103;28;20302;-59
2022/02/25 04:21:33;;;;;;;;;;;1.40;74.20;;;;;;5073439;28;19974;-59
2022/02/25 04:24:01;;;;;;;;;;;1.40;69.60;;;;;;5073082;28;19920;-60
2022/02/25 04:26:28;;;;;;;;;;;1.30;73.50;;;;;;5073832;28;19920;-59
2022/02/25 04:28:54;;;;;;;;;;;1.30;73.90;;;;;;5074770;28;19971;-59
2022/02/25 04:31:20;;;;;;;;;;;1.30;73.10;;;;;;5072665;28;20367;-59
2022/02/25 04:33:47;;;;;;;;;;;1.30;68.70;;;;;;5072428;28;19974;-59
2022/02/25 04:36:14;;;;;;;;;;;1.30;65.60;;;;;;5072625;28;19974;-59
2022/02/25 04:38:40;;;;;;;;;;;1.30;64.50;;;;;;5072664;28;19924;-59
2022/02/25 04:41:08;;;;;;;;;;;1.30;58.70;;;;;;5072941;28;19924;-59
2022/02/25 04:43:35;;;;;;;;;;;1.30;64.10;;;;;;5072377;28;20329;-59
2022/02/25 04:46:01;;;;;;;;;;;1.30;61.40;;;;;;5072527;28;19920;-57
2022/02/25 04:48:28;;;;;;;;;;;1.30;67.60;;;;;;5072634;28;19922;-59
2022/02/25 04:50:55;;;;;;;;;;;1.20;68.00;;;;;;5073151;28;19977;-59
2022/02/25 04:53:21;;;;;;;;;;;1.30;66.70;;;;;;5072530;28;19920;-57
2022/02/25 04:55:48;;;;;;;;;;;1.30;44.00;;;;;;5072229;28;19920;-57
2022/02/25 04:58:16;;;;;;;;;;;1.30;40.70;;;;;;5072389;28;19921;-59
2022/02/25 05:00:43;;;;;;;;;;;1.30;43.90;;;;;;5072482;28;19965;-59
2022/02/25 05:03:10;;;;;;;;;;;1.30;45.90;;;;;;5072210;28;19920;-59
2022/02/25 05:05:37;;;;;;;;;;;1.30;41.60;;;;;;5072094;28;19924;-59
2022/02/25 05:08:04;;;;;;;;;;;1.20;51.80;;;;;;5072357;28;20341;-59
2022/02/25 05:10:30;;;;;;;;;;;1.30;44.90;;;;;;5072434;28;19924;-59
2022/02/25 05:12:57;;;;;;;;;;;1.20;47.40;;;;;;5072668;28;19928;-59
2022/02/25 05:20:55;;;;;;;;;;;1.20;48.10;;;;;;5054849;28;20301;-57
2022/02/25 05:23:22;;;;;;;;;;;1.20;52.90;;;;;;5072436;28;20370;-58
2022/02/25 05:25:48;;;;;;;;;;;1.10;58.10;;;;;;5071980;28;19920;-57
2022/02/25 05:28:15;;;;;;;;;;;1.10;55.90;;;;;;5072044;28;19990;-58
2022/02/25 05:30:43;;;;;;;;;;;1.20;55.50;;;;;;5072213;28;19924;-58
2022/02/25 05:33:09;;;;;;;;;;;1.20;52.90;;;;;;5072483;28;19924;-59
2022/02/25 05:35:36;;;;;;;;;;;1.20;45.80;;;;;;5071732;28;19932;-56
2022/02/25 05:38:03;;;;;;;;;;;1.20;40.60;;;;;;5072166;28;19920;-58
2022/02/25 05:40:29;;;;;;;;;;;1.20;36.40;;;;;;5071799;28;20383;-58
2022/02/25 05:42:56;;;;;;;;;;;1.20;35.20;;;;;;5070566;28;20369;-59
2022/02/25 05:45:22;;;;;;;;;;;1.20;31.70;;;;;;5072092;28;19966;-59
2022/02/25 05:47:50;;;;;;;;;;;1.30;19.30;;;;;;5071950;28;19925;-59
2022/02/25 05:50:18;;;;;;;;;;;1.30;17.40;;;;;;5072196;28;19920;-60
2022/02/25 05:52:45;;;;;;;;;;;1.30;15.20;;;;;;5072059;28;19997;-59
2022/02/25 05:55:12;;;;;;;;;;;1.30;14.70;;;;;;5071731;28;19920;-54
2022/02/25 05:57:39;;;;;;;;;;;1.30;20.00;;;;;;5071508;28;20349;-54
2022/02/25 06:00:07;;;;;;;;;;;1.30;18.70;;;;;;5072076;28;19969;-53
2022/02/25 06:02:34;;;;;;;;;;;1.30;15.10;;;;;;5071588;28;19920;-51
2022/02/25 06:05:02;;;;;;;;;;;1.30;9.60;;;;;;5072038;28;19974;-61
2022/02/25 06:07:29;;;;;;;;;;;1.40;10.00;;;;;;5071658;28;19975;-58
2022/02/25 06:09:55;;;;;;;;;;;1.30;5.40;;;;;;5072087;28;19925;-60
2022/02/25 06:12:22;;;;;;;;;;;1.30;7.70;;;;;;5071649;28;19989;-60
2022/02/25 06:14:48;;;;;;;;;;;1.30;10.80;;;;;;5071428;28;19974;-59
2022/02/25 06:17:15;;;;;;;;;;;1.30;14.30;;;;;;5071314;28;20001;-59
2022/02/25 06:19:41;;;;;;;;;;;1.20;18.60;;;;;;5071546;28;19946;-58
2022/02/25 06:22:09;;;;;;;;;;;1.30;16.20;;;;;;5068302;28;19920;-61
2022/02/25 06:24:36;;;;;;;;;;;1.30;14.20;;;;;;5066121;28;19924;-59
2022/02/25 06:27:02;;;;;;;;;;;1.30;17.10;;;;;;5071041;28;19968;-61
2022/02/25 06:29:29;;;;;;;;;;;1.20;19.80;;;;;;5072313;28;19920;-61
2022/02/25 06:31:56;;;;;;;;;;;1.30;20.20;;;;;;5075123;28;20344;-59
2022/02/25 06:34:22;;;;;;;;;;;1.30;18.10;;;;;;5073999;28;19924;-59
2022/02/25 06:36:49;;;;;;;;;;;1.30;16.00;;;;;;5074684;28;19921;-59
2022/02/25 06:39:16;;;;;;;;;;;1.30;11.40;;;;;;5074437;28;20394;-60
2022/02/25 06:41:43;;;;;;;;;;;1.40;6.90;;;;;;5074376;28;20380;-59
2022/02/25 06:44:10;;;;;;;;;;;1.40;5.70;;;;;;5073988;28;20439;-61
2022/02/25 06:46:36;;;;;;;;;;;1.40;1.00;;;;;;5074263;28;19920;-62
2022/02/25 06:49:03;;;;;;;;;;;1.40;2.40;;;;;;5074118;28;19946;-57
2022/02/25 06:51:30;;;;;;;;;;;1.50;1.00;;;;;;5074134;28;19981;-60
2022/02/25 06:53:57;;;;;;;;;;;1.50;1.00;;;;;;5074281;28;19966;-59
2022/02/25 06:56:25;;;;;;;;;;;1.50;1.00;;;;;;5074046;28;19924;-60
2022/02/25 06:58:51;;;;;;;;;;;1.60;1.00;;;;;;5074081;28;19966;-59
2022/02/25 07:01:18;;;;;;;;;;;1.70;1.00;;;;;;5074043;28;19921;-60
2022/02/25 07:03:45;;;;;;;;;;;1.70;1.00;;;;;;5074259;28;19962;-61
2022/02/25 07:06:11;;;;;;;;;;;1.80;1.00;;;;;;5073904;28;19920;-60
2022/02/25 07:08:38;;;;;;;;;;;1.80;1.00;;;;;;5073774;28;19990;-61
2022/02/25 07:11:04;;;;;;;;;;;1.80;1.00;;;;;;5074138;28;20337;-59
2022/02/25 07:13:32;;;;;;;;;;;1.80;1.00;;;;;;5073408;28;19924;-60
2022/02/25 07:16:00;;;;;;;;;;;1.80;1.00;;;;;;5073855;28;19974;-60
2022/02/25 07:18:27;;;;;;;;;;;1.80;1.00;;;;;;5073649;28;20336;-59
2022/02/25 07:20:53;;;;;;;;;;;1.90;1.00;;;;;;5073666;28;19920;-57
2022/02/25 07:23:20;;;;;;;;;;;1.90;1.00;;;;;;5073574;28;20528;-56
2022/02/25 07:25:46;;;;;;;;;;;2.00;1.00;;;;;;5073152;28;19924;-53
2022/02/25 07:28:13;;;;;;;;;;;2.00;1.00;;;;;;5073682;28;19920;-60
2022/02/25 07:30:41;;;;;;;;;;;2.10;1.00;;;;;;5073325;28;19973;-57
2022/02/25 07:33:08;;;;;;;;;;;2.20;1.00;;;;;;5073335;28;19979;-59
2022/02/25 07:35:34;;;;;;;;;;;2.30;1.00;;;;;;5072931;28;20567;-60
2022/02/25 07:38:01;;;;;;;;;;;2.40;1.00;;;;;;5073403;28;19921;-60
2022/02/25 07:40:28;;;;;;;;;;;2.60;1.00;;;;;;5072456;28;19928;-60
2022/02/25 07:42:55;;;;;;;;;;;2.60;1.00;;;;;;5073093;28;19924;-55
2022/02/25 07:45:21;;;;;;;;;;;2.70;1.00;;;;;;5073199;28;19926;-56
2022/02/25 07:47:49;;;;;;;;;;;2.70;1.00;;;;;;5072899;28;19920;-58
2022/02/25 07:50:16;;;;;;;;;;;2.80;1.00;;;;;;5073364;28;19924;-60
2022/02/25 07:52:42;;;;;;;;;;;2.80;1.00;;;;;;5072714;28;19920;-60
2022/02/25 07:55:09;;;;;;;;;;;2.80;99.90;;;;;;5072725;28;20015;-62
2022/02/25 07:57:36;;;;;;;;;;;2.80;99.90;;;;;;5073281;28;20070;-61
2022/02/25 08:00:04;;;;;;;;;;;2.70;99.90;;;;;;5073270;28;20284;-56
2022/02/25 08:02:30;;;;;;;;;;;2.70;1.00;;;;;;5072911;28;19926;-57
2022/02/25 08:04:58;;;;;;;;;;;2.60;1.00;;;;;;5072435;28;19924;-55
2022/02/25 08:07:25;;;;;;;;;;;2.40;1.00;;;;;;5072579;28;19924;-57
2022/02/25 08:09:52;;;;;;;;;;;2.30;1.00;;;;;;5072844;28;19944;-57
2022/02/25 08:12:19;;;;;;;;;;;2.10;99.90;;;;;;5072810;28;20307;-62
2022/02/25 08:14:45;;;;;;;;;;;2.00;1.00;;;;;;5072230;28;19974;-61
2022/02/25 08:17:12;;;;;;;;;;;2.00;1.00;;;;;;5071535;28;19921;-61
2022/02/25 08:19:39;;;;;;;;;;;1.90;1.00;;;;;;5072259;28;20422;-62
2022/02/25 08:22:06;;;;;;;;;;;2.00;1.00;;;;;;5072355;28;19966;-61
2022/02/25 08:24:34;;;;;;;;;;;2.00;34.60;;;;;;5072251;28;19920;-62
2022/02/25 08:27:01;;;;;;;;;;;2.00;64.80;;;;;;5072023;28;19959;-60
2022/02/25 08:29:27;;;;;;;;;;;2.00;89.30;;;;;;5072552;28;19931;-60
2022/02/25 08:31:54;;;;;;;;;;;2.00;99.90;;;;;;5072056;28;19920;-62
2022/02/25 08:34:21;;;;;;;;;;;2.00;99.90;;;;;;5071560;28;20446;-61
2022/02/25 08:36:47;;;;;;;;;;;2.10;99.90;;;;;;5071801;28;19924;-61
2022/02/25 08:39:17;;;;;;;;;;;2.10;99.90;;;;;;5072444;28;19924;-61
2022/02/25 08:41:44;;;;;;;;;;;2.20;97.50;;;;;;5072037;28;19920;-62
2022/02/25 08:44:10;;;;;;;;;;;2.20;85.90;;;;;;5071963;28;20014;-60
2022/02/25 08:46:37;;;;;;;;;;;2.20;68.40;;;;;;5071864;28;19924;-57
2022/02/25 08:49:04;;;;;;;;;;;2.20;76.10;;;;;;5071796;28;19931;-55
2022/02/25 08:51:31;;;;;;;;;;;2.20;93.60;;;;;;5072311;28;19931;-59
2022/02/25 08:53:57;;;;;;;;;;;2.20;98.70;;;;;;5071656;28;19924;-56
2022/02/25 08:56:26;;;;;;;;;;;2.20;99.90;;;;;;5071863;28;20466;-60
2022/02/25 08:58:53;;;;;;;;;;;2.20;99.90;;;;;;5071661;28;20445;-59
2022/02/25 09:01:20;;;;;;;;;;;2.20;99.90;;;;;;5071963;28;19970;-59
2022/02/25 09:03:46;;;;;;;;;;;2.20;99.90;;;;;;5071483;28;20072;-60
2022/02/25 09:06:14;;;;;;;;;;;2.20;99.90;;;;;;5072371;28;19942;-60
2022/02/25 09:08:41;;;;;;;;;;;2.20;99.90;;;;;;5072568;28;19927;-60
2022/02/25 09:11:07;;;;;;;;;;;2.30;99.90;;;;;;5071730;28;19921;-61
2022/02/25 09:13:35;;;;;;;;;;;2.40;99.90;;;;;;5072052;28;19966;-59
2022/02/25 09:16:01;;;;;;;;;;;2.50;99.90;;;;;;5071736;28;19920;-61
2022/02/25 09:18:28;;;;;;;;;;;2.60;99.90;;;;;;5072585;28;19927;-60
2022/02/25 09:20:55;;;;;;;;;;;2.60;99.90;;;;;;5071690;28;19966;-53
2022/02/25 09:23:22;;;;;;;;;;;2.70;99.90;;;;;;5071649;28;19920;-57
2022/02/25 09:25:49;;;;;;;;;;;2.80;99.90;;;;;;5071571;28;20341;-59
2022/02/25 09:28:16;;;;;;;;;;;2.80;99.90;;;;;;5070675;28;19921;-60
2022/02/25 09:30:44;;;;;;;;;;;2.90;99.90;;;;;;5071632;28;19928;-63
2022/02/25 09:33:10;;;;;;;;;;;3.00;99.90;;;;;;5071175;28;19925;-58
2022/02/25 09:35:37;;;;;;;;;;;3.00;99.90;;;;;;5071352;28;19920;-58
2022/02/25 09:38:03;;;;;;;;;;;3.20;99.20;;;;;;5071545;28;20290;-60
2022/02/25 09:40:30;;;;;;;;;;;3.30;94.30;;;;;;5071594;28;19920;-60
2022/02/25 09:42:56;;;;;;;;;;;3.40;80.60;;;;;;5071127;28;20049;-63
2022/02/25 09:45:23;;;;;;;;;;;3.40;45.90;;;;;;5072288;28;19995;-62
2022/02/25 09:47:51;;;;;;;;;;;3.50;22.70;;;;;;5072720;28;19924;-61
2022/02/25 09:50:19;;;;;;;;;;;3.60;11.00;;;;;;5072484;28;19975;-60
2022/02/25 09:52:46;;;;;;;;;;;3.80;1.00;;;;;;5071408;28;19979;-60
2022/02/25 09:55:19;;;;;;;;;;;3.90;1.00;;;;;;5071118;28;19920;-58
2022/02/25 09:57:46;;;;;;;;;;;4.00;1.00;;;;;;5071293;28;19921;-58
2022/02/25 10:00:13;;;;;;;;;;;4.10;1.00;;;;;;5070900;28;20353;-61
2022/02/25 10:02:41;;;;;;;;;;;4.10;1.00;;;;;;5071485;28;19927;-57
2022/02/25 10:05:09;;;;;;;;;;;4.20;99.90;;;;;;5074873;28;19971;-60
2022/02/25 10:07:37;;;;;;;;;;;4.30;99.90;;;;;;5075164;28;19924;-61
2022/02/25 10:10:04;;;;;;;;;;;4.40;99.90;;;;;;5075051;28;19924;-61
2022/02/25 10:12:32;;;;;;;;;;;4.40;1.00;;;;;;5074538;28;19924;-64
2022/02/25 10:14:59;;;;;;;;;;;4.40;76.30;;;;;;5074918;28;19956;-60
2022/02/25 10:17:26;;;;;;;;;;;4.50;44.20;;;;;;5074883;28;19928;-60
2022/02/25 10:19:54;;;;;;;;;;;4.60;86.90;;;;;;5075008;28;20054;-61
2022/02/25 10:22:24;;;;;;;;;;;4.60;1.00;;;;;;5074312;28;19978;-63
2022/02/25 10:24:52;;;;;;;;;;;4.60;1.00;;;;;;5075017;28;19966;-58
2022/02/25 10:27:25;;;;;;;;;;;4.60;1.00;;;;;;5074633;28;19928;-57
2022/02/25 10:29:53;;;;;;;;;;;4.70;94.30;;;;;;5074926;28;20275;-60
2022/02/25 10:32:20;;;;;;;;;;;4.70;99.90;;;;;;5074575;28;19920;-60
2022/02/25 10:34:46;;;;;;;;;;;4.80;30.10;;;;;;5074062;28;19942;-59
2022/02/25 10:37:13;;;;;;;;;;;4.90;1.00;;;;;;5074848;28;19920;-61
2022/02/25 10:39:42;;;;;;;;;;;4.90;1.00;;;;;;5074724;28;19981;-59
2022/02/25 10:42:11;;;;;;;;;;;5.00;99.90;;;;;;5074549;28;19924;-57
2022/02/25 10:44:42;;;;;;;;;;;5.00;99.90;;;;;;5073916;28;19920;-61
2022/02/25 10:47:12;;;;;;;;;;;5.10;99.90;;;;;;5074243;28;20379;-61
2022/02/25 10:49:39;;;;;;;;;;;5.20;99.90;;;;;;5074056;28;19921;-58
2022/02/25 10:52:19;;;;;;;;;;;5.30;99.90;;;;;;5073973;28;19920;-60
2022/02/25 10:54:47;;;;;;;;;;;5.40;99.90;;;;;;5073887;28;20355;-61
2022/02/25 10:57:14;;;;;;;;;;;5.60;1.00;;;;;;5074135;28;19927;-61
2022/02/25 10:59:43;;;;;;;;;;;5.60;1.00;;;;;;5074254;28;19932;-59
2022/02/25 11:02:22;;;;;;;;;;;5.60;99.90;;;;;;5073750;28;20015;-57
2022/02/25 11:04:58;;;;;;;;;;;5.60;99.90;;;;;;5074143;28;20268;-58
2022/02/25 11:07:25;;;;;;;;;;;5.70;1.00;;;;;;5073960;28;19924;-61
2022/02/25 11:09:53;;;;;;;;;;;5.90;1.00;;;;;;5073777;28;19966;-56
2022/02/25 11:12:20;;;;;;;;;;;6.30;99.80;;;;;;5073311;28;19982;-59
2022/02/25 11:14:47;;;;;;;;;;;6.40;99.90;;;;;;5073289;28;19920;-59
2022/02/25 11:17:14;;;;;;;;;;;6.50;1.00;;;;;;5073259;28;19970;-61
2022/02/25 11:19:41;;;;;;;;;;;6.30;99.90;;;;;;5073962;28;19966;-60
2022/02/25 11:22:09;;;;;;;;;;;6.20;1.00;;;;;;5073629;28;19950;-57
2022/02/25 11:24:38;;;;;;;;;;;6.00;1.00;;;;;;5073237;28;20390;-58
2022/02/25 11:27:06;;;;;;;;;;;5.80;47.70;;;;;;5073610;28;19927;-63
2022/02/25 11:29:33;;;;;;;;;;;5.70;91.80;;;;;;5073538;28;19928;-65
2022/02/25 11:32:01;;;;;;;;;;;5.70;99.90;;;;;;5073694;28;19924;-62
2022/02/25 11:34:28;;;;;;;;;;;5.70;99.90;;;;;;5072806;28;20383;-60
2022/02/25 11:36:55;;;;;;;;;;;5.70;99.90;;;;;;5073598;28;19925;-60
2022/02/25 11:39:22;;;;;;;;;;;5.70;99.90;;;;;;5073121;28;20418;-59
2022/02/25 11:41:49;;;;;;;;;;;5.70;99.90;;;;;;5073111;28;20024;-59
2022/02/25 11:44:17;;;;;;;;;;;5.60;99.90;;;;;;5072775;28;20375;-60
2022/02/25 11:46:44;;;;;;;;;;;5.60;99.90;;;;;;5073214;28;19973;-57
2022/02/25 11:49:19;;;;;;;;;;;5.50;1.00;;;;;;5073173;28;19927;-61
2022/02/25 11:51:56;;;;;;;;;;;5.30;14.90;;;;;;5073021;28;20272;-58
2022/02/25 11:54:27;;;;;;;;;;;5.10;1.00;;;;;;5072940;28;19967;-59
2022/02/25 11:57:14;;;;;;;;;;;4.90;99.90;;;;;;5072789;28;20016;-61
2022/02/25 11:59:59;;;;;;;;;;;4.70;99.90;;;;;;5073372;28;19920;-60
2022/02/25 12:02:35;;;;;;;;;;;4.60;1.00;;;;;;5072566;28;19924;-60
2022/02/25 12:05:11;;;;;;;;;;;4.60;1.00;;;;;;5072903;28;19974;-60
2022/02/25 12:07:40;;;;;;;;;;;4.50;1.00;;;;;;5072751;28;20007;-59
2022/02/25 12:10:16;;;;;;;;;;;4.50;1.00;;;;;;5072833;28;20012;-61
2022/02/25 12:12:43;;;;;;;;;;;4.60;1.00;;;;;;5072185;28;19920;-59
2022/02/25 12:15:11;;;;;;;;;;;4.70;1.00;;;;;;5072446;28;19928;-60
2022/02/25 12:17:44;;;;;;;;;;;4.90;1.00;;;;;;5072179;28;20759;-60
2022/02/25 12:20:11;;;;;;;;;;;5.00;1.00;;;;;;5072841;28;19921;-60
2022/02/25 12:22:47;;;;;;;;;;;5.20;1.00;;;;;;5072764;28;19920;-59
2022/02/25 12:25:14;;;;;;;;;;;5.20;1.20;;;;;;5072226;28;19985;-59
2022/02/25 12:27:41;;;;;;;;;;;5.40;20.00;;;;;;5072308;28;19920;-60
2022/02/25 12:30:23;;;;;;;;;;;5.60;36.70;;;;;;5072570;28;20423;-61
2022/02/25 12:32:52;;;;;;;;;;;5.70;1.00;;;;;;5071980;28;20298;-58
2022/02/25 12:35:44;;;;;;;;;;;5.90;1.00;;;;;;5071665;28;19924;-58
2022/02/25 12:38:13;;;;;;;;;;;5.80;1.00;;;;;;5072026;28;19966;-58
2022/02/25 12:40:39;;;;;;;;;;;5.80;99.90;;;;;;5071951;28;19924;-59
2022/02/25 12:43:07;;;;;;;;;;;5.80;1.00;;;;;;5071687;28;19924;-61
2022/02/25 12:45:37;;;;;;;;;;;5.70;1.00;;;;;;5071329;28;20420;-59
2022/02/25 12:48:05;;;;;;;;;;;5.60;1.00;;;;;;5072023;28;19920;-58
2022/02/25 12:50:32;;;;;;;;;;;5.60;99.90;;;;;;5072118;28;19924;-57
2022/02/25 12:53:03;;;;;;;;;;;5.50;99.90;;;;;;5071325;28;19931;-59
2022/02/25 12:55:29;;;;;;;;;;;5.60;99.90;;;;;;5072566;28;19920;-59
2022/02/25 12:57:56;;;;;;;;;;;5.60;1.00;;;;;;5072100;28;19921;-58
2022/02/25 13:00:23;;;;;;;;;;;5.60;1.00;;;;;;5073740;28;19920;-60
2022/02/25 13:02:51;;;;;;;;;;;5.60;1.00;;;;;;5073103;28;19921;-60
2022/02/25 13:05:19;;;;;;;;;;;5.70;99.90;;;;;;5072375;28;19974;-58
2022/02/25 13:07:54;;;;;;;;;;;5.80;1.00;;;;;;5071733;28;19924;-61
2022/02/25 13:10:24;;;;;;;;;;;5.90;99.90;;;;;;5072949;28;19921;-61
2022/02/25 13:12:50;;;;;;;;;;;5.90;1.00;;;;;;5072691;28;19963;-61
2022/02/25 13:15:17;;;;;;;;;;;6.00;99.90;;;;;;5071875;28;19974;-60
2022/02/25 13:17:45;;;;;;;;;;;5.90;99.90;;;;;;5071339;28;19920;-60
2022/02/25 13:20:12;;;;;;;;;;;5.90;99.90;;;;;;5071732;28;19928;-61
2022/02/25 13:22:41;;;;;;;;;;;5.90;99.90;;;;;;5071709;28;19978;-59
2022/02/25 13:25:09;;;;;;;;;;;5.90;99.90;;;;;;5071558;28;20017;-57
2022/02/25 13:27:40;;;;;;;;;;;5.80;91.50;;;;;;5072379;28;19974;-62
2022/02/25 13:30:10;;;;;;;;;;;5.70;1.00;;;;;;5072404;28;19924;-59
2022/02/25 13:32:37;;;;;;;;;;;5.70;1.00;;;;;;5071899;28;19924;-60
2022/02/25 13:35:04;;;;;;;;;;;5.70;1.00;;;;;;5071044;28;20329;-59
2022/02/25 13:37:30;;;;;;;;;;;5.70;40.20;;;;;;5071645;28;20325;-58
2022/02/25 13:39:58;;;;;;;;;;;5.60;64.50;;;;;;5075855;28;20049;-56
2022/02/25 13:42:32;;;;;;;;;;;5.50;1.00;;;;;;5075498;28;20377;-58
2022/02/25 13:44:58;;;;;;;;;;;5.50;1.00;;;;;;5075389;28;19920;-59
2022/02/25 13:52:57;;;;;;;;;;;5.40;10.60;;;;;;5055205;28;19924;-60
2022/02/25 13:55:26;;;;;;;;;;;5.40;94.40;;;;;;5055275;28;20338;-61
2022/02/25 13:57:56;;;;;;;;;;;5.40;55.40;;;;;;5055049;28;20375;-62
2022/02/25 14:00:24;;;;;;;;;;;5.40;99.90;;;;;;5055442;28;19975;-63
2022/02/25 14:02:50;;;;;;;;;;;5.50;99.90;;;;;;5054912;28;19924;-63
2022/02/25 14:05:18;;;;;;;;;;;5.60;99.90;;;;;;5055434;28;19921;-64
2022/02/25 14:07:45;;;;;;;;;;;5.80;99.90;;;;;;5055452;28;19967;-62
2022/02/25 14:10:21;;;;;;;;;;;6.00;99.90;;;;;;5054995;28;20728;-62
2022/02/25 14:12:50;;;;;;;;;;;6.10;99.90;;;;;;5055174;28;19927;-60
2022/02/25 14:15:16;;;;;;;;;;;6.30;99.90;;;;;;5064553;28;19921;-57
2022/02/25 14:17:43;;;;;;;;;;;6.30;53.90;;;;;;5074890;28;19920;-59
2022/02/25 14:20:12;;;;;;;;;;;6.20;1.00;;;;;;5075023;28;19970;-55
2022/02/25 14:22:40;;;;;;;;;;;6.30;99.90;;;;;;5074685;28;19925;-59
2022/02/25 14:25:13;;;;;;;;;;;6.20;85.00;;;;;;5074471;28;19927;-61
2022/02/25 14:27:54;;;;;;;;;;;6.30;99.90;;;;;;5074719;28;19986;-62
2022/02/25 14:30:21;;;;;;;;;;;6.40;99.90;;;;;;5074764;28;19966;-60
2022/02/25 14:32:49;;;;;;;;;;;6.60;34.30;;;;;;5074645;28;19924;-61
2022/02/25 14:35:18;;;;;;;;;;;6.60;99.90;;;;;;5074431;28;19924;-60
2022/02/25 14:37:45;;;;;;;;;;;6.70;24.30;;;;;;5074445;28;20378;-62
2022/02/25 14:40:11;;;;;;;;;;;6.70;1.00;;;;;;5074412;28;19966;-61
2022/02/25 14:42:38;;;;;;;;;;;6.60;85.00;;;;;;5055874;28;20304;-56
2022/02/25 14:45:07;;;;;;;;;;;6.60;5.60;;;;;;5054292;28;19960;-55
2022/02/25 14:47:33;;;;;;;;;;;6.60;99.90;;;;;;5054015;28;19943;-54